Time;durP1;ratioP1;P1;durP2;ratioP2;P2;SDS_P1;SDS_P2;PMS_P1;PMS_P2;Temp;Humidity;BMP_temperature;BMP_pressure;BME280_temperature;BME280_humidity;BME280_pressure;Samples;Min_cycle;Max_cycle;Signal;HPM_P1;HPM_P2
2023/12/22 00:01:51;;;;;;;7.30;0.80;;;;;;;4.52;100.00;98917.97;5041514;28;20477;-71
2023/12/22 00:04:19;;;;;;;6.53;0.50;;;;;;;4.51;100.00;98924.13;5035142;28;20065;-70
2023/12/22 00:06:51;;;;;;;4.18;0.63;;;;;;;4.55;100.00;98949.28;5031507;28;20103;-71
2023/12/22 00:09:20;;;;;;;3.63;0.70;;;;;;;4.56;100.00;98931.78;5038909;28;20080;-71
2023/12/22 00:11:48;;;;;;;3.40;1.15;;;;;;;4.57;100.00;98929.06;5038244;28;20042;-71
2023/12/22 00:14:18;;;;;;;3.10;0.73;;;;;;;4.51;100.00;98942.47;5044363;28;20097;-71
2023/12/22 00:16:47;;;;;;;2.45;0.30;;;;;;;4.55;100.00;98975.50;5032985;28;20033;-70
2023/12/22 00:19:15;;;;;;;5.18;0.60;;;;;;;4.36;100.00;98918.72;5027334;28;20132;-71
2023/12/22 00:21:43;;;;;;;3.88;0.55;;;;;;;4.49;100.00;98949.56;5031933;28;20083;-71
2023/12/22 00:24:15;;;;;;;1.27;0.32;;;;;;;4.48;100.00;98973.22;5037265;28;20127;-71
2023/12/22 00:26:43;;;;;;;3.67;0.52;;;;;;;4.46;100.00;98977.66;5018064;28;20132;-72
2023/12/22 00:29:11;;;;;;;4.95;0.60;;;;;;;4.42;100.00;98974.31;5033037;28;20048;-71
2023/12/22 00:31:39;;;;;;;2.35;0.40;;;;;;;4.40;100.00;98972.72;5037610;28;20092;-70
2023/12/22 00:34:07;;;;;;;4.50;0.60;;;;;;;4.37;100.00;98981.56;5036434;28;20099;-70
2023/12/22 00:36:37;;;;;;;2.75;0.40;;;;;;;4.39;100.00;98990.22;5021211;28;20046;-70
2023/12/22 00:39:05;;;;;;;4.38;0.60;;;;;;;4.37;100.00;98952.72;5023828;28;20042;-71
2023/12/22 00:41:35;;;;;;;1.60;0.40;;;;;;;4.36;100.00;98955.41;5030485;28;20046;-69
2023/12/22 00:44:03;;;;;;;2.35;0.40;;;;;;;4.32;100.00;98969.56;5042288;28;20054;-70
2023/12/22 00:46:32;;;;;;;3.28;0.52;;;;;;;4.28;100.00;98947.03;5030952;28;20107;-69
2023/12/22 00:49:00;;;;;;;2.80;0.60;;;;;;;4.26;100.00;98944.47;5021951;28;20436;-69
2023/12/22 00:51:30;;;;;;;3.93;0.60;;;;;;;4.29;100.00;98946.97;5034696;28;20033;-70
2023/12/22 00:53:58;;;;;;;6.07;0.70;;;;;;;4.29;100.00;98943.50;5044699;28;20451;-71
2023/12/22 00:56:26;;;;;;;3.60;0.60;;;;;;;4.42;100.00;98947.25;5023326;28;20056;-70
2023/12/22 00:58:56;;;;;;;6.55;0.68;;;;;;;4.44;100.00;98948.91;5012218;28;20041;-70
2023/12/22 01:01:37;;;;;;;1.60;0.50;;;;;;;4.45;100.00;98955.84;5056991;28;20052;-71
2023/12/22 01:04:06;;;;;;;2.90;0.40;;;;;;;4.48;100.00;98957.47;5036036;28;20049;-69
2023/12/22 01:06:38;;;;;;;3.03;0.40;;;;;;;4.46;100.00;98972.41;5035825;28;20057;-70
2023/12/22 01:09:06;;;;;;;5.25;0.80;;;;;;;4.45;100.00;98986.44;5024320;28;20076;-70
2023/12/22 01:11:34;;;;;;;5.32;0.63;;;;;;;4.45;100.00;98994.31;5046227;28;20211;-70
2023/12/22 01:14:03;;;;;;;5.15;0.57;;;;;;;4.47;100.00;98995.09;5040599;28;20124;-71
2023/12/22 01:16:31;;;;;;;2.28;0.57;;;;;;;4.48;100.00;98987.16;5038229;28;20095;-70
2023/12/22 01:19:01;;;;;;;2.53;0.65;;;;;;;4.47;100.00;98995.09;5032907;28;20075;-71
2023/12/22 01:21:43;;;;;;;4.13;0.55;;;;;;;4.48;100.00;99012.53;5037811;28;20048;-70
2023/12/22 01:24:17;;;;;;;4.55;0.68;;;;;;;4.50;100.00;99043.00;5039364;28;20079;-70
2023/12/22 01:26:45;;;;;;;4.03;0.65;;;;;;;4.54;100.00;99065.53;5037474;28;20049;-70
2023/12/22 01:29:18;;;;;;;1.55;0.55;;;;;;;4.58;100.00;99067.09;5029688;28;20045;-70
2023/12/22 01:31:46;;;;;;;0.30;0.20;;;;;;;4.48;100.00;99086.78;5034193;28;20061;-70
2023/12/22 01:34:15;;;;;;;2.67;0.28;;;;;;;4.10;100.00;99100.63;5043877;28;20052;-71
2023/12/22 01:36:43;;;;;;;1.38;0.20;;;;;;;3.90;100.00;99095.38;5033331;28;20073;-71
2023/12/22 01:39:12;;;;;;;0.55;0.20;;;;;;;3.80;100.00;99061.69;5024275;28;20052;-72
2023/12/22 01:41:41;;;;;;;0.20;0.10;;;;;;;3.73;100.00;99059.38;5037592;28;20045;-71
2023/12/22 01:44:09;;;;;;;0.40;0.10;;;;;;;3.71;100.00;99062.06;5038621;28;20119;-72
2023/12/22 01:46:42;;;;;;;0.82;0.10;;;;;;;3.71;100.00;99071.69;5046244;28;20037;-71
2023/12/22 01:49:12;;;;;;;0.10;0.10;;;;;;;3.78;100.00;99079.22;5033986;28;20049;-73
2023/12/22 01:51:44;;;;;;;1.95;0.20;;;;;;;3.75;100.00;99071.50;5036240;28;20078;-72
2023/12/22 01:54:14;;;;;;;2.90;0.30;;;;;;;3.77;100.00;99077.53;5044409;28;20041;-71
2023/12/22 01:56:43;;;;;;;0.10;0.10;;;;;;;3.80;100.00;99082.63;5020161;28;20132;-74
2023/12/22 01:59:12;;;;;;;0.10;0.10;;;;;;;3.84;100.00;99099.94;5014953;28;20057;-72
2023/12/22 02:01:44;;;;;;;0.30;0.15;;;;;;;3.86;100.00;99103.34;5040424;28;20103;-71
2023/12/22 02:04:13;;;;;;;0.40;0.20;;;;;;;3.93;100.00;99103.97;5045192;28;20063;-73
2023/12/22 02:06:42;;;;;;;1.17;0.10;;;;;;;3.81;100.00;99105.28;5029003;28;20118;-70
2023/12/22 02:09:11;;;;;;;2.22;0.10;;;;;;;3.73;100.00;99081.19;5025992;28;20178;-71
2023/12/22 02:11:40;;;;;;;0.00;0.00;;;;;;;3.66;100.00;99076.25;5056389;28;20073;-71
2023/12/22 02:14:09;;;;;;;0.82;0.10;;;;;;;3.51;100.00;99054.16;5054135;28;20056;-71
2023/12/22 02:16:45;;;;;;;0.15;0.10;;;;;;;3.52;100.00;99071.56;5035157;28;20050;-72
2023/12/22 02:19:23;;;;;;;0.00;0.00;;;;;;;3.42;100.00;99091.16;5057422;28;20486;-71
2023/12/22 02:22:00;;;;;;;0.20;0.20;;;;;;;3.36;100.00;99067.84;5051787;28;20086;-72
2023/12/22 02:24:35;;;;;;;0.52;0.10;;;;;;;3.31;100.00;99064.53;5039943;28;20083;-73
2023/12/22 02:27:05;;;;;;;;;;;;;;;3.23;100.00;99074.47;5038373;28;20514;-71
2023/12/22 02:29:38;;;;;;;1.17;0.28;;;;;;;3.16;100.00;99077.28;5034034;28;19995;-71
2023/12/22 02:32:11;;;;;;;0.52;0.20;;;;;;;3.24;100.00;99070.94;5053211;28;20033;-72
2023/12/22 02:34:43;;;;;;;0.17;0.10;;;;;;;3.26;100.00;99083.06;5035879;28;20064;-70
2023/12/22 02:37:13;;;;;;;2.80;0.55;;;;;;;3.29;100.00;99071.63;5040492;28;20037;-73
2023/12/22 02:39:43;;;;;;;0.43;0.20;;;;;;;3.31;100.00;99093.31;5028305;28;20129;-71
2023/12/22 02:42:13;;;;;;;0.20;0.20;;;;;;;3.31;100.00;99082.84;5039159;28;20049;-71
2023/12/22 02:44:43;;;;;;;0.38;0.20;;;;;;;3.33;100.00;99086.25;5008043;28;20088;-71
2023/12/22 02:47:11;;;;;;;0.75;0.30;;;;;;;3.36;100.00;99079.16;5039023;28;20048;-70
2023/12/22 02:49:39;;;;;;;3.40;0.68;;;;;;;3.27;100.00;99061.22;5027184;28;20053;-71
2023/12/22 02:52:07;;;;;;;1.48;0.32;;;;;;;3.36;100.00;99041.66;5039176;28;20052;-72
2023/12/22 02:54:39;;;;;;;4.60;0.50;;;;;;;3.35;100.00;99063.50;5053624;28;20084;-71
2023/12/22 02:57:09;;;;;;;1.23;0.50;;;;;;;3.27;100.00;99061.22;5038161;28;20049;-70
2023/12/22 02:59:38;;;;;;;0.90;0.25;;;;;;;3.19;100.00;99042.31;5030423;28;20054;-71
2023/12/22 03:02:06;;;;;;;1.45;0.35;;;;;;;3.16;100.00;99052.91;5041886;28;20176;-71
2023/12/22 03:04:36;;;;;;;0.30;0.20;;;;;;;3.16;100.00;99053.75;5026404;28;20519;-71
2023/12/22 03:07:05;;;;;;;2.33;0.50;;;;;;;3.16;100.00;99052.91;5036285;28;20049;-72
2023/12/22 03:09:34;;;;;;;1.63;0.43;;;;;;;3.18;100.00;99056.31;5030340;28;20458;-70
2023/12/22 03:12:10;;;;;;;1.88;0.50;;;;;;;3.23;100.00;99058.75;5036380;28;20049;-72
2023/12/22 03:14:38;;;;;;;2.10;0.50;;;;;;;3.26;100.00;99058.66;5039812;28;20115;-70
2023/12/22 03:17:07;;;;;;;2.92;0.30;;;;;;;3.37;100.00;99056.47;5054699;28;20037;-71
2023/12/22 03:19:36;;;;;;;0.73;0.30;;;;;;;3.43;100.00;99038.78;5024450;28;20121;-70
2023/12/22 03:22:04;;;;;;;1.95;0.80;;;;;;;3.54;100.00;99054.03;5016965;28;20038;-73
2023/12/22 03:24:33;;;;;;;3.35;0.70;;;;;;;3.65;100.00;99069.31;5035851;28;20049;-70
2023/12/22 03:27:02;;;;;;;1.95;0.70;;;;;;;3.73;100.00;99065.47;5031839;28;20053;-70
2023/12/22 03:29:32;;;;;;;2.40;0.77;;;;;;;3.75;100.00;99050.56;5031170;28;20049;-71
2023/12/22 03:32:00;;;;;;;3.60;0.60;;;;;;;3.84;100.00;99042.31;5037034;28;20049;-70
2023/12/22 03:34:28;;;;;;;4.57;0.60;;;;;;;3.73;100.00;99035.81;5025292;28;20060;-70
2023/12/22 03:36:56;;;;;;;4.97;1.13;;;;;;;3.95;100.00;99073.28;5038832;28;20054;-71
2023/12/22 03:39:24;;;;;;;3.70;0.70;;;;;;;3.97;100.00;99061.00;5033168;28;20061;-70
2023/12/22 03:41:52;;;;;;;5.43;1.00;;;;;;;3.98;100.00;99064.47;5024122;28;20041;-71
2023/12/22 03:44:21;;;;;;;4.28;1.10;;;;;;;4.08;100.00;99068.44;5034539;28;20037;-70
2023/12/22 03:46:55;;;;;;;4.00;1.15;;;;;;;4.12;100.00;99077.84;5028004;28;20059;-70
2023/12/22 03:49:24;;;;;;;3.63;1.85;;;;;;;4.13;100.00;99075.16;5031651;28;20072;-68
2023/12/22 03:51:53;;;;;;;8.25;1.75;;;;;;;4.18;100.00;99082.84;5038458;28;20349;-72
2023/12/22 03:54:21;;;;;;;6.35;1.60;;;;;;;4.25;100.00;99060.69;5034407;28;20133;-70
2023/12/22 03:56:50;;;;;;;8.48;2.47;;;;;;;4.26;100.00;99053.66;5038391;28;20111;-70
2023/12/22 03:59:19;;;;;;;4.57;1.80;;;;;;;4.22;100.00;99042.50;5027429;28;20055;-71
2023/12/22 04:01:55;;;;;;;7.15;1.48;;;;;;;4.16;100.00;99042.75;5031748;28;20425;-72
2023/12/22 04:04:23;;;;;;;6.55;1.98;;;;;;;4.10;100.00;99041.22;5039054;28;20276;-72
2023/12/22 04:06:52;;;;;;;8.60;1.95;;;;;;;4.10;100.00;99035.97;5033417;28;20417;-72
2023/12/22 04:09:21;;;;;;;5.60;1.35;;;;;;;4.14;100.00;99039.34;5035758;28;20045;-71
2023/12/22 04:11:50;;;;;;;5.85;1.27;;;;;;;4.13;100.00;99053.34;5037050;28;20076;-70
2023/12/22 04:14:18;;;;;;;6.10;1.85;;;;;;;4.09;100.00;99051.78;5029847;28;20124;-70
2023/12/22 04:16:46;;;;;;;9.10;1.85;;;;;;;4.12;100.00;99051.63;5035981;28;20107;-70
2023/12/22 04:19:20;;;;;;;7.50;1.42;;;;;;;4.06;100.00;99034.44;5011980;28;20664;-70
2023/12/22 04:21:48;;;;;;;;;;;;;;;4.13;100.00;99041.09;5033042;28;20541;-69
2023/12/22 04:24:16;;;;;;;8.43;2.00;;;;;;;4.14;100.00;99039.34;5059040;28;20001;-71
2023/12/22 04:26:45;;;;;;;7.85;1.80;;;;;;;4.18;100.00;99051.41;5035982;28;20060;-73
2023/12/22 04:29:15;;;;;;;11.18;2.33;;;;;;;4.19;100.00;99067.06;5029739;28;20068;-71
2023/12/22 04:31:45;;;;;;;13.15;3.20;;;;;;;4.37;100.00;99057.56;5029834;28;20049;-70
2023/12/22 04:34:15;;;;;;;18.38;3.10;;;;;;;4.54;100.00;99046.34;5037496;28;20513;-70
2023/12/22 04:36:46;;;;;;;17.15;2.50;;;;;;;4.61;100.00;99047.75;5033275;28;20114;-70
2023/12/22 04:39:15;;;;;;;9.52;2.45;;;;;;;4.65;100.00;99046.72;5032172;28;20053;-70
2023/12/22 04:41:44;;;;;;;12.25;2.45;;;;;;;4.65;100.00;99048.47;5031576;28;20041;-70
2023/12/22 04:44:12;;;;;;;8.07;2.28;;;;;;;4.72;100.00;99056.00;5031297;28;20041;-70
2023/12/22 04:46:39;;;;;;;17.15;2.50;;;;;;;4.75;100.00;99063.72;5040613;28;20092;-69
2023/12/22 04:49:08;;;;;;;11.20;2.40;;;;;;;4.70;100.00;99057.84;5036190;28;20613;-70
2023/12/22 04:51:35;;;;;;;8.43;2.30;;;;;;;4.79;100.00;99061.81;5036158;28;20718;-71
2023/12/22 04:54:05;;;;;;;15.70;2.15;;;;;;;4.86;100.00;99082.47;5034216;28;20084;-70
2023/12/22 04:56:36;;;;;;;13.77;2.58;;;;;;;4.93;100.00;99080.41;5018549;28;20045;-70
2023/12/22 04:59:05;;;;;;;10.27;2.55;;;;;;;4.96;100.00;99077.66;5036522;28;20139;-70
2023/12/22 05:01:36;;;;;;;21.85;2.67;;;;;;;4.95;100.00;99068.09;5027508;28;20071;-70
2023/12/22 05:04:05;;;;;;;6.82;1.95;;;;;;;4.95;100.00;99060.22;5031084;28;20064;-69
2023/12/22 05:06:38;;;;;;;18.88;2.85;;;;;;;4.96;100.00;99069.78;5032168;28;20056;-70
2023/12/22 05:09:09;;;;;;;15.05;2.40;;;;;;;4.96;100.00;99077.66;5033725;28;20410;-68
2023/12/22 05:11:37;;;;;;;18.02;2.75;;;;;;;5.01;100.00;99083.56;5031211;28;20116;-70
2023/12/22 05:14:07;;;;;;;11.47;2.10;;;;;;;5.01;100.00;99083.56;5036330;28;20120;-71
2023/12/22 05:16:35;;;;;;;9.43;2.38;;;;;;;5.04;100.00;99093.03;5033008;28;20100;-71
2023/12/22 05:19:03;;;;;;;20.08;2.95;;;;;;;5.04;100.00;99101.75;5038840;28;20103;-70
2023/12/22 05:21:32;;;;;;;10.93;2.90;;;;;;;5.01;100.00;99101.94;5027826;28;20041;-71
2023/12/22 05:24:02;;;;;;;14.32;2.50;;;;;;;5.05;100.00;99113.13;5031449;28;20068;-71
2023/12/22 05:26:31;;;;;;;11.73;2.58;;;;;;;5.02;100.00;99108.88;5033612;28;20049;-69
2023/12/22 05:29:01;;;;;;;;;;;;;;;5.00;100.00;99102.00;5044097;28;20132;-70
2023/12/22 05:31:30;;;;;;;8.35;2.05;;;;;;;4.96;100.00;99082.91;5046501;28;19921;-71
2023/12/22 05:33:59;;;;;;;9.20;1.65;;;;;;;4.89;100.00;99071.81;5047798;28;20052;-70
2023/12/22 05:36:26;;;;;;;7.55;1.92;;;;;;;4.87;100.00;99083.34;5035314;28;20057;-70
2023/12/22 05:38:56;;;;;;;6.63;1.90;;;;;;;4.83;100.00;99097.50;5029133;28;20108;-69
2023/12/22 05:41:25;;;;;;;16.30;2.30;;;;;;;4.77;100.00;99077.63;5023197;28;20526;-70
2023/12/22 05:43:54;;;;;;;12.65;2.97;;;;;;;4.76;100.00;99065.44;5037929;28;20132;-71
2023/12/22 05:46:23;;;;;;;16.27;2.28;;;;;;;4.70;100.00;99065.72;5037071;28;20096;-71
2023/12/22 05:48:51;;;;;;;10.90;2.13;;;;;;;4.78;100.00;99052.25;5034359;28;20053;-69
2023/12/22 05:51:24;;;;;;;10.88;2.15;;;;;;;4.80;100.00;99067.00;5026714;28;20053;-70
2023/12/22 05:53:54;;;;;;;10.15;2.22;;;;;;;4.78;100.00;99071.47;5046691;28;20095;-70
2023/12/22 05:56:25;;;;;;;9.50;2.20;;;;;;;4.83;100.00;99077.38;5034525;28;20442;-71
2023/12/22 05:58:57;;;;;;;11.70;2.03;;;;;;;4.95;100.00;99086.44;5035649;28;20038;-69
2023/12/22 06:01:27;;;;;;;13.18;2.17;;;;;;;5.00;100.00;99081.84;5027495;28;20063;-72
2023/12/22 06:03:56;;;;;;;12.02;2.15;;;;;;;5.19;100.00;99066.97;5038209;28;20052;-70
2023/12/22 06:06:27;;;;;;;10.68;2.28;;;;;;;5.27;100.00;99067.47;5034575;28;20053;-70
2023/12/22 06:08:55;;;;;;;8.70;1.48;;;;;;;5.35;100.00;99080.25;5030849;28;20203;-70
2023/12/22 06:11:23;;;;;;;12.48;2.35;;;;;;;5.36;100.00;99078.44;5022830;28;20057;-70
2023/12/22 06:13:51;;;;;;;6.30;1.88;;;;;;;5.23;100.00;99068.53;5031244;28;20068;-70
2023/12/22 06:16:24;;;;;;;15.15;1.90;;;;;;;5.23;100.00;99054.53;5028229;28;20050;-71
2023/12/22 06:18:52;;;;;;;12.93;2.58;;;;;;;5.25;100.00;99043.06;5034599;28;20048;-71
2023/12/22 06:21:21;;;;;;;11.65;2.22;;;;;;;5.37;100.00;99083.63;5023928;28;20052;-69
2023/12/22 06:23:53;;;;;;;14.50;2.13;;;;;;;5.39;100.00;99080.94;5034088;28;20107;-71
2023/12/22 06:26:25;;;;;;;10.85;1.90;;;;;;;5.49;100.00;99056.81;5035322;28;20103;-70
2023/12/22 06:28:54;;;;;;;8.77;1.80;;;;;;;5.52;100.00;99092.56;5032568;28;20038;-70
2023/12/22 06:31:24;;;;;;;6.47;1.58;;;;;;;5.57;100.00;99094.06;5001815;28;20049;-71
2023/12/22 06:33:53;;;;;;;7.88;1.65;;;;;;;5.75;100.00;99100.22;5051189;28;20080;-70
2023/12/22 06:36:22;;;;;;;7.50;1.88;;;;;;;5.89;100.00;99104.81;5031921;28;20063;-70
2023/12/22 06:39:00;;;;;;;7.47;1.70;;;;;;;5.87;100.00;99125.03;5029050;28;20594;-71
2023/12/22 06:41:32;;;;;;;9.77;2.08;;;;;;;5.82;100.00;99125.28;5006345;28;20056;-71
2023/12/22 06:44:01;;;;;;;11.43;1.90;;;;;;;5.82;100.00;99130.53;5031447;28;20140;-71
2023/12/22 06:46:33;;;;;;;13.02;1.77;;;;;;;5.77;100.00;99108.03;5033694;28;20273;-70
2023/12/22 06:49:02;;;;;;;6.10;1.75;;;;;;;5.88;100.00;99122.38;5038093;28;20080;-69
2023/12/22 06:51:34;;;;;;;8.88;1.70;;;;;;;5.92;100.00;99138.84;5025661;28;20128;-70
2023/12/22 06:54:05;;;;;;;9.48;2.03;;;;;;;5.92;100.00;99126.56;5021623;28;20137;-71
2023/12/22 06:56:35;;;;;;;12.48;2.17;;;;;;;5.96;100.00;99132.53;5044491;28;20048;-71
2023/12/22 06:59:03;;;;;;;10.75;1.88;;;;;;;5.97;100.00;99115.84;5034494;28;20048;-71
2023/12/22 07:01:35;;;;;;;9.27;1.92;;;;;;;5.97;100.00;99119.31;5031123;28;20044;-70
2023/12/22 07:04:07;;;;;;;9.10;1.92;;;;;;;5.92;100.00;99096.81;5031864;28;20115;-71
2023/12/22 07:06:36;;;;;;;7.50;1.38;;;;;;;5.97;100.00;99108.81;5037636;28;20045;-70
2023/12/22 07:09:32;;;;;;;11.02;1.70;;;;;;;6.07;100.00;99118.84;5038305;28;20053;-71
2023/12/22 07:12:01;;;;;;;7.65;1.85;;;;;;;6.13;100.00;99124.66;5007442;28;20153;-70
2023/12/22 07:14:29;;;;;;;11.35;1.67;;;;;;;6.07;100.00;99150.38;5042097;28;20046;-70
2023/12/22 07:17:13;;;;;;;9.35;1.55;;;;;;;6.03;100.00;99154.09;5040001;28;20045;-71
2023/12/22 07:19:41;;;;;;;9.63;1.70;;;;;;;6.05;100.00;99150.47;5040276;28;20049;-69
2023/12/22 07:22:12;;;;;;;11.77;1.70;;;;;;;6.05;100.00;99165.38;5028234;28;20555;-70
2023/12/22 07:24:40;;;;;;;;;;;;;;;6.08;100.00;99173.97;5025689;28;20056;-68
2023/12/22 07:27:12;;;;;;;10.82;1.70;;;;;;;6.01;100.00;99176.94;5031849;28;20477;-72
2023/12/22 07:29:40;;;;;;;7.80;1.40;;;;;;;6.01;100.00;99188.31;5033975;28;20568;-70
2023/12/22 07:32:13;;;;;;;13.77;1.90;;;;;;;6.06;100.00;99190.72;5030339;28;20216;-72
2023/12/22 07:34:43;;;;;;;8.55;1.60;;;;;;;6.05;100.00;99186.41;5022365;28;20414;-70
2023/12/22 07:37:12;;;;;;;8.98;1.98;;;;;;;6.15;100.00;99198.16;5038379;28;20045;-71
2023/12/22 07:39:41;;;;;;;8.35;1.60;;;;;;;6.24;100.00;99197.75;5004206;28;20045;-71
2023/12/22 07:42:11;;;;;;;12.00;2.03;;;;;;;6.21;100.00;99190.00;5008727;28;20049;-70
2023/12/22 07:44:39;;;;;;;6.63;1.60;;;;;;;6.41;100.00;99200.41;5037273;28;20079;-71
2023/12/22 07:47:10;;;;;;;11.63;1.60;;;;;;;6.45;100.00;99214.25;5035752;28;20498;-70
2023/12/22 07:49:40;;;;;;;13.32;2.17;;;;;;;6.40;100.00;99208.34;5032551;28;20753;-70
2023/12/22 07:52:08;;;;;;;9.93;2.15;;;;;;;6.32;100.00;99206.09;5022903;28;20085;-70
2023/12/22 07:54:37;;;;;;;9.23;1.92;;;;;;;6.35;100.00;99195.44;5029888;28;20119;-70
2023/12/22 07:57:08;;;;;;;11.93;1.90;;;;;;;6.29;100.00;99209.75;5042411;28;20481;-70
2023/12/22 07:59:36;;;;;;;13.88;2.30;;;;;;;6.32;100.00;99201.69;5038304;28;20141;-70
2023/12/22 08:02:04;;;;;;;8.85;1.65;;;;;;;6.28;100.00;99184.38;5027062;28;20052;-71
2023/12/22 08:04:32;;;;;;;10.93;2.08;;;;;;;6.41;100.00;99199.56;5037402;28;20044;-70
2023/12/22 08:07:02;;;;;;;10.15;1.58;;;;;;;6.38;100.00;99204.94;5021949;28;20051;-70
2023/12/22 08:09:32;;;;;;;10.55;1.88;;;;;;;6.32;100.00;99211.34;5034233;28;20526;-70
2023/12/22 08:12:01;;;;;;;10.63;2.10;;;;;;;6.38;100.00;99220.72;5028100;28;20052;-70
2023/12/22 08:14:32;;;;;;;;;;;;;;;6.39;100.00;99218.03;5043326;28;20140;-69
2023/12/22 08:17:02;;;;;;;10.20;2.22;;;;;;;6.40;100.00;99224.13;5039294;28;19937;-70
2023/12/22 08:19:33;;;;;;;7.03;1.60;;;;;;;6.39;100.00;99220.66;5047198;28;20053;-73
2023/12/22 08:22:05;;;;;;;13.13;2.53;;;;;;;6.44;100.00;99221.28;5028424;28;20425;-71
2023/12/22 08:24:35;;;;;;;10.82;2.10;;;;;;;6.42;100.00;99219.66;5034722;28;20127;-72
2023/12/22 08:27:06;;;;;;;12.18;2.20;;;;;;;6.41;100.00;99226.69;5019365;28;20046;-73
2023/12/22 08:29:36;;;;;;;12.80;2.38;;;;;;;6.43;100.00;99234.50;5034280;28;20046;-70
2023/12/22 08:32:04;;;;;;;12.00;2.08;;;;;;;6.39;100.00;99219.81;5025799;28;20045;-71
2023/12/22 08:34:33;;;;;;;17.05;2.28;;;;;;;6.42;100.00;99231.03;5038847;28;20045;-71
2023/12/22 08:37:04;;;;;;;;;;;;;;;6.45;100.00;99233.53;5036395;28;20041;-71
2023/12/22 08:39:33;;;;;;;10.60;2.13;;;;;;;6.45;100.00;99225.63;5035365;28;19931;-71
2023/12/22 08:42:01;;;;;;;9.98;1.90;;;;;;;6.39;100.00;99241.69;5024151;28;20053;-72
2023/12/22 08:44:32;;;;;;;7.85;1.42;;;;;;;6.22;100.00;99233.75;5031155;28;20047;-70
2023/12/22 08:47:02;;;;;;;5.55;1.38;;;;;;;6.17;100.00;99233.97;5035272;28;20048;-71
2023/12/22 08:49:30;;;;;;;8.43;1.35;;;;;;;6.06;100.00;99236.25;5033440;28;20122;-69
2023/12/22 08:51:58;;;;;;;7.70;1.63;;;;;;;6.06;100.00;99243.28;5023898;28;20176;-70
2023/12/22 08:54:27;;;;;;;8.23;1.70;;;;;;;6.01;100.00;99237.38;5035269;28;20045;-72
2023/12/22 08:56:55;;;;;;;4.15;1.05;;;;;;;6.04;100.00;99253.03;5035150;28;20522;-70
2023/12/22 08:59:28;;;;;;;5.95;1.00;;;;;;;6.07;100.00;99252.88;5035263;28;20117;-69
2023/12/22 09:01:57;;;;;;;5.38;0.98;;;;;;;6.03;100.00;99249.53;5010959;28;20053;-69
2023/12/22 09:04:26;;;;;;;5.78;1.55;;;;;;;6.03;100.00;99248.69;5038551;28;20579;-70
2023/12/22 09:06:54;;;;;;;4.40;1.10;;;;;;;6.00;100.00;99265.44;5037233;28;20041;-70
2023/12/22 09:09:24;;;;;;;6.50;1.30;;;;;;;6.03;100.00;99260.06;5032306;28;20089;-70
2023/12/22 09:11:54;;;;;;;3.55;0.93;;;;;;;6.02;100.00;99249.59;5023472;28;20076;-70
2023/12/22 09:14:23;;;;;;;5.27;1.30;;;;;;;6.03;100.00;99252.16;5048339;28;20521;-70
2023/12/22 09:16:51;;;;;;;4.75;1.55;;;;;;;5.99;100.00;99250.59;5045971;28;20499;-71
2023/12/22 09:19:21;;;;;;;4.38;1.00;;;;;;;5.97;100.00;99249.84;5039754;28;20558;-72
2023/12/22 09:21:50;;;;;;;18.17;12.13;;;;;;;5.94;100.00;99247.34;5023740;28;20037;-70
2023/12/22 09:24:18;;;;;;;2.15;0.50;;;;;;;5.89;100.00;99244.94;5034660;28;20529;-71
2023/12/22 09:26:49;;;;;;;3.30;0.60;;;;;;;5.85;100.00;99253.81;5035421;28;20095;-71
2023/12/22 09:29:18;;;;;;;10.60;8.15;;;;;;;5.82;100.00;99261.88;5039749;28;20441;-73
2023/12/22 09:31:47;;;;;;;2.28;1.02;;;;;;;5.85;100.00;99266.13;5028154;28;20088;-71
2023/12/22 09:34:18;;;;;;;2.65;0.93;;;;;;;5.94;100.00;99263.13;5036344;28;20049;-72
2023/12/22 09:36:48;;;;;;;4.45;1.00;;;;;;;6.06;100.00;99278.31;5017223;28;20133;-72
2023/12/22 09:39:16;;;;;;;4.93;0.93;;;;;;;6.14;100.00;99263.03;5027704;28;20049;-72
2023/12/22 09:41:49;;;;;;;3.28;1.17;;;;;;;6.16;100.00;99250.66;5024061;28;20764;-71
2023/12/22 09:44:21;;;;;;;2.50;1.08;;;;;;;6.19;100.00;99244.41;5037658;28;20505;-71
2023/12/22 09:46:52;;;;;;;1.58;1.05;;;;;;;6.17;100.00;99259.41;5039521;28;20077;-72
2023/12/22 09:49:21;;;;;;;2.88;0.90;;;;;;;6.19;100.00;99261.03;5024963;28;20046;-72
2023/12/22 09:51:51;;;;;;;2.22;1.30;;;;;;;6.22;100.00;99263.53;5018037;28;20049;-72
2023/12/22 09:54:20;;;;;;;4.18;0.93;;;;;;;6.25;100.00;99237.09;5012849;28;20045;-71
2023/12/22 09:56:51;;;;;;;4.40;1.15;;;;;;;6.29;100.00;99227.28;5020940;28;20037;-71
2023/12/22 09:59:22;;;;;;;3.30;1.60;;;;;;;6.37;100.00;99235.66;5021385;28;20049;-71
2023/12/22 10:01:51;;;;;;;4.15;1.30;;;;;;;6.29;100.00;99227.28;5027150;28;20104;-72
2023/12/22 10:04:20;;;;;;;4.57;1.40;;;;;;;6.33;100.00;99231.47;5031023;28;20044;-73
2023/12/22 10:06:49;;;;;;;3.80;0.93;;;;;;;6.36;100.00;99218.16;5029668;28;20041;-72
2023/12/22 10:09:19;;;;;;;4.20;1.10;;;;;;;6.41;100.00;99221.44;5040293;28;20054;-71
2023/12/22 10:11:50;;;;;;;5.07;1.25;;;;;;;6.43;100.00;99219.59;5007644;28;20510;-71
2023/12/22 10:14:22;;;;;;;6.32;1.50;;;;;;;6.40;100.00;99203.97;5033803;28;20065;-71
2023/12/22 10:16:50;;;;;;;5.43;2.08;;;;;;;6.45;100.00;99201.13;5047568;28;20052;-71
2023/12/22 10:19:20;;;;;;;5.57;1.75;;;;;;;6.58;100.00;99207.47;5033010;28;20069;-71
2023/12/22 10:21:50;;;;;;;9.52;2.50;;;;;;;6.63;100.00;99208.91;5011710;28;20051;-70
2023/12/22 10:24:37;;;;;;;;;;;;;;;6.64;100.00;99205.38;5036764;28;20147;-71
2023/12/22 10:27:05;;;;;;;8.70;2.13;;;;;;;6.69;100.00;99200.72;5035009;28;19921;-70
2023/12/22 10:29:35;;;;;;;13.57;2.75;;;;;;;6.67;100.00;99189.44;5028882;28;20099;-71
2023/12/22 10:32:04;;;;;;;10.45;2.90;;;;;;;6.66;100.00;99178.97;5009485;28;20056;-71
2023/12/22 10:34:36;;;;;;;14.48;3.53;;;;;;;6.72;100.00;99178.69;5034462;28;20049;-70
2023/12/22 10:37:05;;;;;;;14.55;2.72;;;;;;;6.62;100.00;99146.72;5018821;28;20124;-72
2023/12/22 10:39:34;;;;;;;12.90;3.28;;;;;;;6.74;100.00;99154.94;5010390;28;20045;-72
2023/12/22 10:42:05;;;;;;;12.63;3.17;;;;;;;6.74;100.00;99145.25;5022800;28;20037;-71
2023/12/22 10:44:36;;;;;;;12.25;3.10;;;;;;;6.82;100.00;99142.22;5035439;28;20361;-70
2023/12/22 10:47:06;;;;;;;9.05;3.00;;;;;;;6.89;100.00;99143.63;5034109;28;20771;-72
2023/12/22 10:49:34;;;;;;;12.88;3.05;;;;;;;6.86;100.00;99138.50;5010460;28;20052;-70
2023/12/22 10:52:05;;;;;;;12.73;3.55;;;;;;;6.89;100.00;99143.63;5024355;28;20122;-70
2023/12/22 10:54:33;;;;;;;10.38;3.28;;;;;;;6.89;100.00;99139.22;5022560;28;20060;-72
2023/12/22 10:57:02;;;;;;;19.05;4.00;;;;;;;6.91;100.00;99121.56;5042922;28;20053;-70
2023/12/22 10:59:39;;;;;;;10.60;3.92;;;;;;;6.99;100.00;99114.09;5022756;28;20060;-71
2023/12/22 11:02:19;;;;;;;12.77;3.50;;;;;;;7.04;100.00;99108.59;5025590;28;20053;-70
2023/12/22 11:04:57;;;;;;;16.83;3.97;;;;;;;7.08;100.00;99102.25;5048751;28;20054;-72
2023/12/22 11:07:29;;;;;;;;;;;;;;;7.11;100.00;99096.81;5039970;28;20076;-71
2023/12/22 11:10:02;;;;;;;19.00;3.33;;;;;;;7.13;100.00;99094.94;5038425;28;19921;-71
2023/12/22 11:12:34;;;;;;;16.25;4.30;;;;;;;7.10;100.00;99089.84;5026305;28;20076;-71
2023/12/22 11:15:06;;;;;;;12.88;3.28;;;;;;;7.18;100.00;99106.09;5040311;28;20041;-71
2023/12/22 11:17:40;;;;;;;12.77;3.90;;;;;;;7.17;100.00;99096.47;5040186;28;20052;-71
2023/12/22 11:20:10;;;;;;;19.08;4.28;;;;;;;7.14;100.00;99087.91;5021290;28;20074;-70
2023/12/22 11:22:39;;;;;;;16.77;3.75;;;;;;;7.20;100.00;99090.22;5015422;28;20065;-70
2023/12/22 11:25:15;;;;;;;23.08;4.53;;;;;;;7.21;100.00;99079.59;5035509;28;20049;-69
2023/12/22 11:27:45;;;;;;;16.15;4.15;;;;;;;7.26;100.00;99079.31;5013222;28;20045;-71
2023/12/22 11:30:18;;;;;;;21.67;4.53;;;;;;;7.25;100.00;99069.72;5038431;28;20041;-70
2023/12/22 11:32:50;;;;;;;16.38;3.90;;;;;;;7.28;100.00;99059.03;5026408;28;20140;-70
2023/12/22 11:35:19;;;;;;;;;;;;;;;7.33;100.00;99062.28;5017407;28;20045;-70
2023/12/22 11:37:48;;;;;;;23.33;4.35;;;;;;;7.37;100.00;99062.03;5049616;28;19929;-71
2023/12/22 11:40:16;;;;;;;18.58;4.07;;;;;;;7.33;100.00;99044.69;5038753;28;20050;-70
2023/12/22 11:42:50;;;;;;;14.10;3.28;;;;;;;7.42;100.00;99055.63;5028718;28;20116;-71
2023/12/22 11:45:22;;;;;;;22.92;6.20;;;;;;;7.35;100.00;99039.34;5033874;28;20523;-70